Leo — JD3199 — position and weather

sailwx.info

Track history (hours):
 
Tides and Currents Weather Stations Pressure Air Temp Water Temp Dewpoint Dewpoint Depression Visibility Wind Speed Wind Dir Waves Ship Positions

Leo

Last reported at 2017-Oct-17 13:00 UTC. Time now 2017-Oct-17 13:11 UTC.
Position N 35°27' E 139°40'.

Length 27 m; draft 2.8 m.

Type: Pilot. MMSI: 431002392.

Date/timePositionNaut miles runAvg speedWind from/ knotsBaromVisibWave heightAir tempDewpointWater temp
2017-Oct-17 13:00N 35°27' E 139°40'0 0.0
2017-Oct-17 12:30N 35°27' E 139°40'0 0.0
2017-Oct-17 12:00N 35°27' E 139°40'0 0.0
2017-Oct-17 11:30N 35°27' E 139°40'0 0.0
2017-Oct-17 11:00N 35°27' E 139°40'0 0.0
2017-Oct-17 10:30N 35°27' E 139°40'0 0.0
2017-Oct-17 10:00N 35°27' E 139°40'0 0.0
2017-Oct-17 09:30N 35°27' E 139°40'0 0.0
2017-Oct-17 09:00N 35°27' E 139°40'0 0.0
2017-Oct-17 08:30N 35°27' E 139°40'0 0.0
2017-Oct-17 08:00N 35°27' E 139°40'0 0.0
2017-Oct-17 07:30N 35°27' E 139°40'0 0.0
2017-Oct-17 07:00N 35°27' E 139°40'0 0.0
2017-Oct-17 06:30N 35°27' E 139°40'0 0.0
2017-Oct-17 06:00N 35°27' E 139°40'0 0.0
2017-Oct-17 05:30N 35°27' E 139°40'0 0.0
2017-Oct-17 05:00N 35°27' E 139°40'1 1.7
2017-Oct-17 04:30N 35°27' E 139°41'713.2
2017-Oct-17 04:00N 35°21' E 139°42'713.9
2017-Oct-17 03:30N 35°14' E 139°45'2 3.7
2017-Oct-17 03:00N 35°16' E 139°46'612.8
2017-Oct-17 02:31N 35°22' E 139°42'1 2.7
2017-Oct-17 02:01N 35°23' E 139°43'1 1.8
2017-Oct-17 01:30N 35°24' E 139°44'4 8.6
2017-Oct-17 01:00N 35°27' E 139°40'1 1.1
2017-Oct-17 00:30N 35°27' E 139°40'0 0.0
2017-Oct-17 00:00N 35°27' E 139°40'0 0.0
2017-Oct-16 23:30N 35°27' E 139°40'0 0.0
2017-Oct-16 23:00N 35°27' E 139°40'0 0.0
2017-Oct-16 22:30N 35°27' E 139°40'2 4.8
2017-Oct-16 22:00N 35°25' E 139°42'612.2
2017-Oct-16 21:30N 35°19' E 139°42'612.9
2017-Oct-16 21:00N 35°13' E 139°46'3 6.7
2017-Oct-16 20:30N 35°17' E 139°45'611.9
2017-Oct-16 20:00N 35°22' E 139°42'1 2.8
2017-Oct-16 19:30N 35°23' E 139°41'0 0.0
2017-Oct-16 19:00N 35°23' E 139°41'4 7.7
2017-Oct-16 18:30N 35°27' E 139°41'1 2.5
2017-Oct-16 18:01N 35°27' E 139°40'0 0.0
2017-Oct-16 09:13N 35°27' E 139°40'2 7.2
2017-Oct-16 09:00N 35°27' E 139°42'611.9
2017-Oct-16 08:30N 35°21' E 139°43'612.4
2017-Oct-16 08:00N 35°16' E 139°47'510.8
2017-Oct-16 07:30N 35°10' E 139°47'1 1.8
2017-Oct-16 07:00N 35°11' E 139°47'713.9
2017-Oct-16 06:30N 35°17' E 139°44'713.7
2017-Oct-16 06:00N 35°24' E 139°42'3 6.4
2017-Oct-16 05:30N 35°27' E 139°40'0 0.0
2017-Oct-16 05:00N 35°27' E 139°40'0 0.0
2017-Oct-15 23:04N 35°27' E 139°40'0 1.2
2017-Oct-15 23:00N 35°27' E 139°40'5 9.4
2017-Oct-15 22:31N 35°22' E 139°41'612.8
2017-Oct-15 22:00N 35°16' E 139°45'3 5.3
2017-Oct-15 21:30N 35°14' E 139°46'612.5
2017-Oct-15 21:00N 35°20' E 139°43'2 4.6
2017-Oct-15 20:30N 35°22' E 139°43'3 6.5
2017-Oct-15 20:00N 35°25' E 139°45'3 6.9
2017-Oct-15 19:31N 35°26' E 139°42'2 3.2
2017-Oct-15 19:00N 35°27' E 139°40'0 0.0
2017-Oct-15 18:30N 35°27' E 139°40'0 0.0
2017-Oct-15 15:29N 35°27' E 139°40'  
2017-Oct-13 06:38N 35°27' E 139°40'0 0.0
2017-Oct-13 06:31N 35°27' E 139°40'5 9.9
2017-Oct-13 06:00N 35°30' E 139°44'1 1.4
2017-Oct-13 05:30N 35°31' E 139°44'0 0.4
2017-Oct-13 05:00N 35°31' E 139°44'510.2
2017-Oct-13 04:30N 35°27' E 139°40'0 0.6
2017-Oct-13 04:00N 35°27' E 139°40'0 0.0
2017-Oct-13 03:30N 35°27' E 139°40'0 0.0
2017-Oct-13 03:00N 35°27' E 139°40'0 0.0
2017-Oct-13 02:30N 35°27' E 139°40'0 0.0
2017-Oct-13 02:00N 35°27' E 139°40'0 0.0
2017-Oct-13 01:30N 35°27' E 139°40'0 0.0
2017-Oct-13 01:00N 35°27' E 139°40'0 0.0
2017-Oct-13 00:30N 35°27' E 139°40'0 0.0
2017-Oct-13 00:00N 35°27' E 139°40'4 8.1
2017-Oct-12 23:30N 35°29' E 139°43'1 1.5
2017-Oct-12 23:00N 35°30' E 139°44'3 5.3
2017-Oct-12 22:30N 35°28' E 139°42'1 1.3
2017-Oct-12 22:00N 35°27' E 139°42'2 4.4
2017-Oct-12 21:30N 35°27' E 139°40'0 0.0
2017-Oct-12 21:00N 35°27' E 139°40'  
2017-Oct-10 08:18N 35°27' E 139°41'513.9
2017-Oct-10 07:58N 35°25' E 139°46'512.0
2017-Oct-10 07:30N 35°20' E 139°44'612.8
2017-Oct-10 07:00N 35°14' E 139°47'2 4.5
2017-Oct-10 06:31N 35°12' E 139°48'611.9
2017-Oct-10 06:00N 35°17' E 139°44'713.1
2017-Oct-10 05:30N 35°23' E 139°42'4 7.4
2017-Oct-10 05:01N 35°27' E 139°40'0 0.1
2017-Oct-10 04:30N 35°27' E 139°40'0 0.0
2017-Oct-10 00:11N 35°27' E 139°40'0 0.9
2017-Oct-10 00:00N 35°27' E 139°40'2 3.7
2017-Oct-09 23:30N 35°26' E 139°42'713.6
2017-Oct-09 23:00N 35°19' E 139°43'713.8
2017-Oct-09 22:30N 35°13' E 139°46'610.8
2017-Oct-09 21:59N 35°18' E 139°44'9 6.2
2017-Oct-09 20:30N 35°27' E 139°41'1 0.1
2017-Oct-09 10:43N 35°27' E 139°40'312.7
2017-Oct-09 10:29N 35°25' E 139°42'713.7
2017-Oct-09 10:00N 35°18' E 139°43'611.6
2017-Oct-09 09:30N 35°13' E 139°46'611.6
2017-Oct-09 09:00N 35°18' E 139°44'9 6.0
2017-Oct-09 07:27N 35°27' E 139°41'0 0.0
2017-Oct-08 21:41N 35°27' E 139°40'612.9
2017-Oct-08 21:13N 35°25' E 139°47'312.2
2017-Oct-08 20:59N 35°22' E 139°45'611.5
2017-Oct-08 20:30N 35°17' E 139°46'612.4
2017-Oct-08 20:00N 35°11' E 139°47'4 7.4
2017-Oct-08 19:30N 35°15' E 139°46'612.1
2017-Oct-08 19:01N 35°20' E 139°43'510.1
2017-Oct-08 18:31N 35°25' E 139°43'2 3.1
2017-Oct-08 18:00N 35°25' E 139°45'4 7.3
2017-Oct-08 17:30N 35°27' E 139°42'2 3.4
2017-Oct-08 17:00N 35°27' E 139°40'0 0.0
2017-Oct-08 16:30N 35°27' E 139°40'0 0.0
2017-Oct-08 16:00N 35°27' E 139°40'0 0.0
2017-Oct-08 15:30N 35°27' E 139°40'0 0.0
2017-Oct-08 15:00N 35°27' E 139°40'0 0.0
2017-Oct-08 14:30N 35°27' E 139°40'0 0.0
2017-Oct-08 14:00N 35°27' E 139°40'0 0.0
2017-Oct-08 13:30N 35°27' E 139°40'0 0.0
2017-Oct-08 13:00N 35°27' E 139°40'0 0.0
2017-Oct-08 12:30N 35°27' E 139°40'0 0.0
2017-Oct-08 12:00N 35°27' E 139°40'0 0.0
2017-Oct-08 11:30N 35°27' E 139°40'0 0.0
2017-Oct-08 11:00N 35°27' E 139°40'2 5.0
2017-Oct-08 10:30N 35°25' E 139°42'713.4
2017-Oct-08 10:00N 35°18' E 139°43'713.3
2017-Oct-08 09:30N 35°12' E 139°46'611.7
2017-Oct-08 09:01N 35°18' E 139°44'612.4
2017-Oct-08 08:30N 35°24' E 139°43'4 9.0
2017-Oct-08 08:00N 35°28' E 139°45'0 0.6
2017-Oct-08 07:30N 35°28' E 139°45'0 0.3
2017-Oct-08 07:00N 35°28' E 139°45'5 9.1
2017-Oct-08 06:31N 35°27' E 139°40'0 0.0
2017-Oct-08 06:00N 35°27' E 139°40'0 0.0
2017-Oct-08 05:30N 35°27' E 139°40'0 0.0
2017-Oct-08 05:00N 35°27' E 139°40'0 0.0
2017-Oct-08 04:30N 35°27' E 139°40'0 0.0
2017-Oct-08 04:00N 35°27' E 139°40'0 0.0
2017-Oct-08 03:30N 35°27' E 139°40'0 0.0
2017-Oct-08 03:00N 35°27' E 139°40'0 0.0
2017-Oct-08 02:30N 35°27' E 139°40'4 8.3
2017-Oct-08 02:00N 35°30' E 139°43'1 2.5
2017-Oct-08 01:31N 35°31' E 139°44'2 4.5
2017-Oct-08 01:00N 35°29' E 139°42'2 3.3
2017-Oct-08 00:30N 35°27' E 139°43'3 5.7
2017-Oct-08 00:00N 35°27' E 139°40'0 0.0
2017-Oct-07 23:30N 35°27' E 139°40'0 0.0
2017-Oct-07 23:00N 35°27' E 139°40'0 0.0
2017-Oct-07 22:30N 35°27' E 139°40'0 0.0
2017-Oct-07 15:13N 35°27' E 139°40'1 5.7
2017-Oct-07 15:00N 35°27' E 139°41'713.7
2017-Oct-07 14:31N 35°20' E 139°42'713.5
2017-Oct-07 14:00N 35°14' E 139°46'3 6.0
2017-Oct-07 13:30N 35°17' E 139°45'612.2
2017-Oct-07 13:00N 35°23' E 139°42'  
Track history (hours):
 
Tides and Currents Weather Stations Pressure Air Temp Water Temp Dewpoint Dewpoint Depression Visibility Wind Speed Wind Dir Waves Ship Positions

Leo

Last reported at 2017-Oct-17 13:00 UTC. Time now 2017-Oct-17 13:11 UTC.
Position N 35°27' E 139°40'.

Length 27 m; draft 2.8 m.

Type: Pilot. MMSI: 431002392.

Date/timePositionNaut miles runAvg speedWind from/ knotsBaromVisibWave heightAir tempDewpointWater temp
2017-Oct-17 13:00N 35°27' E 139°40'0 0.0
2017-Oct-17 12:30N 35°27' E 139°40'0 0.0
2017-Oct-17 12:00N 35°27' E 139°40'0 0.0
2017-Oct-17 11:30N 35°27' E 139°40'0 0.0
2017-Oct-17 11:00N 35°27' E 139°40'0 0.0
2017-Oct-17 10:30N 35°27' E 139°40'0 0.0
2017-Oct-17 10:00N 35°27' E 139°40'0 0.0
2017-Oct-17 09:30N 35°27' E 139°40'0 0.0
2017-Oct-17 09:00N 35°27' E 139°40'0 0.0
2017-Oct-17 08:30N 35°27' E 139°40'0 0.0
2017-Oct-17 08:00N 35°27' E 139°40'0 0.0
2017-Oct-17 07:30N 35°27' E 139°40'0 0.0
2017-Oct-17 07:00N 35°27' E 139°40'0 0.0
2017-Oct-17 06:30N 35°27' E 139°40'0 0.0
2017-Oct-17 06:00N 35°27' E 139°40'0 0.0
2017-Oct-17 05:30N 35°27' E 139°40'0 0.0
2017-Oct-17 05:00N 35°27' E 139°40'1 1.7
2017-Oct-17 04:30N 35°27' E 139°41'713.2
2017-Oct-17 04:00N 35°21' E 139°42'713.9
2017-Oct-17 03:30N 35°14' E 139°45'2 3.7
2017-Oct-17 03:00N 35°16' E 139°46'612.8
2017-Oct-17 02:31N 35°22' E 139°42'1 2.7
2017-Oct-17 02:01N 35°23' E 139°43'1 1.8
2017-Oct-17 01:30N 35°24' E 139°44'4 8.6
2017-Oct-17 01:00N 35°27' E 139°40'1 1.1
2017-Oct-17 00:30N 35°27' E 139°40'0 0.0
2017-Oct-17 00:00N 35°27' E 139°40'0 0.0
2017-Oct-16 23:30N 35°27' E 139°40'0 0.0
2017-Oct-16 23:00N 35°27' E 139°40'0 0.0
2017-Oct-16 22:30N 35°27' E 139°40'2 4.8
2017-Oct-16 22:00N 35°25' E 139°42'612.2
2017-Oct-16 21:30N 35°19' E 139°42'612.9
2017-Oct-16 21:00N 35°13' E 139°46'3 6.7
2017-Oct-16 20:30N 35°17' E 139°45'611.9
2017-Oct-16 20:00N 35°22' E 139°42'1 2.8
2017-Oct-16 19:30N 35°23' E 139°41'0 0.0
2017-Oct-16 19:00N 35°23' E 139°41'4 7.7
2017-Oct-16 18:30N 35°27' E 139°41'1 2.5
2017-Oct-16 18:01N 35°27' E 139°40'0 0.0
2017-Oct-16 09:13N 35°27' E 139°40'2 7.2
2017-Oct-16 09:00N 35°27' E 139°42'611.9
2017-Oct-16 08:30N 35°21' E 139°43'612.4
2017-Oct-16 08:00N 35°16' E 139°47'510.8
2017-Oct-16 07:30N 35°10' E 139°47'1 1.8
2017-Oct-16 07:00N 35°11' E 139°47'713.9
2017-Oct-16 06:30N 35°17' E 139°44'713.7
2017-Oct-16 06:00N 35°24' E 139°42'3 6.4
2017-Oct-16 05:30N 35°27' E 139°40'0 0.0
2017-Oct-16 05:00N 35°27' E 139°40'0 0.0
2017-Oct-15 23:04N 35°27' E 139°40'0 1.2
2017-Oct-15 23:00N 35°27' E 139°40'5 9.4
2017-Oct-15 22:31N 35°22' E 139°41'612.8
2017-Oct-15 22:00N 35°16' E 139°45'3 5.3
2017-Oct-15 21:30N 35°14' E 139°46'612.5
2017-Oct-15 21:00N 35°20' E 139°43'2 4.6
2017-Oct-15 20:30N 35°22' E 139°43'3 6.5
2017-Oct-15 20:00N 35°25' E 139°45'3 6.9
2017-Oct-15 19:31N 35°26' E 139°42'2 3.2
2017-Oct-15 19:00N 35°27' E 139°40'0 0.0
2017-Oct-15 18:30N 35°27' E 139°40'0 0.0
2017-Oct-15 15:29N 35°27' E 139°40'  
2017-Oct-13 06:38N 35°27' E 139°40'0 0.0
2017-Oct-13 06:31N 35°27' E 139°40'5 9.9
2017-Oct-13 06:00N 35°30' E 139°44'1 1.4
2017-Oct-13 05:30N 35°31' E 139°44'0 0.4
2017-Oct-13 05:00N 35°31' E 139°44'510.2
2017-Oct-13 04:30N 35°27' E 139°40'0 0.6
2017-Oct-13 04:00N 35°27' E 139°40'0 0.0
2017-Oct-13 03:30N 35°27' E 139°40'0 0.0
2017-Oct-13 03:00N 35°27' E 139°40'0 0.0
2017-Oct-13 02:30N 35°27' E 139°40'0 0.0
2017-Oct-13 02:00N 35°27' E 139°40'0 0.0
2017-Oct-13 01:30N 35°27' E 139°40'0 0.0
2017-Oct-13 01:00N 35°27' E 139°40'0 0.0
2017-Oct-13 00:30N 35°27' E 139°40'0 0.0
2017-Oct-13 00:00N 35°27' E 139°40'4 8.1
2017-Oct-12 23:30N 35°29' E 139°43'1 1.5
2017-Oct-12 23:00N 35°30' E 139°44'3 5.3
2017-Oct-12 22:30N 35°28' E 139°42'1 1.3
2017-Oct-12 22:00N 35°27' E 139°42'2 4.4
2017-Oct-12 21:30N 35°27' E 139°40'0 0.0
2017-Oct-12 21:00N 35°27' E 139°40'  
2017-Oct-10 08:18N 35°27' E 139°41'513.9
2017-Oct-10 07:58N 35°25' E 139°46'512.0
2017-Oct-10 07:30N 35°20' E 139°44'612.8
2017-Oct-10 07:00N 35°14' E 139°47'2 4.5
2017-Oct-10 06:31N 35°12' E 139°48'611.9
2017-Oct-10 06:00N 35°17' E 139°44'713.1
2017-Oct-10 05:30N 35°23' E 139°42'4 7.4
2017-Oct-10 05:01N 35°27' E 139°40'0 0.1
2017-Oct-10 04:30N 35°27' E 139°40'0 0.0
2017-Oct-10 00:11N 35°27' E 139°40'0 0.9
2017-Oct-10 00:00N 35°27' E 139°40'2 3.7
2017-Oct-09 23:30N 35°26' E 139°42'713.6
2017-Oct-09 23:00N 35°19' E 139°43'713.8
2017-Oct-09 22:30N 35°13' E 139°46'610.8
2017-Oct-09 21:59N 35°18' E 139°44'9 6.2
2017-Oct-09 20:30N 35°27' E 139°41'1 0.1
2017-Oct-09 10:43N 35°27' E 139°40'312.7
2017-Oct-09 10:29N 35°25' E 139°42'713.7
2017-Oct-09 10:00N 35°18' E 139°43'611.6
2017-Oct-09 09:30N 35°13' E 139°46'611.6
2017-Oct-09 09:00N 35°18' E 139°44'9 6.0
2017-Oct-09 07:27N 35°27' E 139°41'0 0.0
2017-Oct-08 21:41N 35°27' E 139°40'612.9
2017-Oct-08 21:13N 35°25' E 139°47'312.2
2017-Oct-08 20:59N 35°22' E 139°45'611.5
2017-Oct-08 20:30N 35°17' E 139°46'612.4
2017-Oct-08 20:00N 35°11' E 139°47'4 7.4
2017-Oct-08 19:30N 35°15' E 139°46'612.1
2017-Oct-08 19:01N 35°20' E 139°43'510.1
2017-Oct-08 18:31N 35°25' E 139°43'2 3.1
2017-Oct-08 18:00N 35°25' E 139°45'4 7.3
2017-Oct-08 17:30N 35°27' E 139°42'2 3.4
2017-Oct-08 17:00N 35°27' E 139°40'0 0.0
2017-Oct-08 16:30N 35°27' E 139°40'0 0.0
2017-Oct-08 16:00N 35°27' E 139°40'0 0.0
2017-Oct-08 15:30N 35°27' E 139°40'0 0.0
2017-Oct-08 15:00N 35°27' E 139°40'0 0.0
2017-Oct-08 14:30N 35°27' E 139°40'0 0.0
2017-Oct-08 14:00N 35°27' E 139°40'0 0.0
2017-Oct-08 13:30N 35°27' E 139°40'0 0.0
2017-Oct-08 13:00N 35°27' E 139°40'0 0.0
2017-Oct-08 12:30N 35°27' E 139°40'0 0.0
2017-Oct-08 12:00N 35°27' E 139°40'0 0.0
2017-Oct-08 11:30N 35°27' E 139°40'0 0.0
2017-Oct-08 11:00N 35°27' E 139°40'2 5.0
2017-Oct-08 10:30N 35°25' E 139°42'713.4
2017-Oct-08 10:00N 35°18' E 139°43'713.3
2017-Oct-08 09:30N 35°12' E 139°46'611.7
2017-Oct-08 09:01N 35°18' E 139°44'612.4
2017-Oct-08 08:30N 35°24' E 139°43'4 9.0
2017-Oct-08 08:00N 35°28' E 139°45'0 0.6
2017-Oct-08 07:30N 35°28' E 139°45'0 0.3
2017-Oct-08 07:00N 35°28' E 139°45'5 9.1
2017-Oct-08 06:31N 35°27' E 139°40'0 0.0
2017-Oct-08 06:00N 35°27' E 139°40'0 0.0
2017-Oct-08 05:30N 35°27' E 139°40'0 0.0
2017-Oct-08 05:00N 35°27' E 139°40'0 0.0
2017-Oct-08 04:30N 35°27' E 139°40'0 0.0
2017-Oct-08 04:00N 35°27' E 139°40'0 0.0
2017-Oct-08 03:30N 35°27' E 139°40'0 0.0
2017-Oct-08 03:00N 35°27' E 139°40'0 0.0
2017-Oct-08 02:30N 35°27' E 139°40'4 8.3
2017-Oct-08 02:00N 35°30' E 139°43'1 2.5
2017-Oct-08 01:31N 35°31' E 139°44'2 4.5
2017-Oct-08 01:00N 35°29' E 139°42'2 3.3
2017-Oct-08 00:30N 35°27' E 139°43'3 5.7
2017-Oct-08 00:00N 35°27' E 139°40'0 0.0
2017-Oct-07 23:30N 35°27' E 139°40'0 0.0
2017-Oct-07 23:00N 35°27' E 139°40'0 0.0
2017-Oct-07 22:30N 35°27' E 139°40'0 0.0
2017-Oct-07 15:13N 35°27' E 139°40'1 5.7
2017-Oct-07 15:00N 35°27' E 139°41'713.7
2017-Oct-07 14:31N 35°20' E 139°42'713.5
2017-Oct-07 14:00N 35°14' E 139°46'3 6.0
2017-Oct-07 13:30N 35°17' E 139°45'612.2
2017-Oct-07 13:00N 35°23' E 139°42'  

Dump ship's entire track history